createdAt,value
2019-02-16T00:00:00.549Z,130.53
2019-02-16T00:02:30.493Z,138.00
2019-02-16T00:04:58.210Z,138.27
2019-02-16T00:07:25.990Z,130.97
2019-02-16T00:09:53.947Z,129.57
2019-02-16T00:12:21.759Z,128.73
2019-02-16T00:14:50.165Z,131.30
2019-02-16T00:17:18.092Z,138.07
2019-02-16T00:19:46.572Z,135.63
2019-02-16T00:22:22.025Z,118.97
2019-02-16T00:24:57.542Z,136.70
2019-02-16T00:27:28.396Z,144.20
2019-02-16T00:29:56.159Z,147.53
2019-02-16T00:32:23.963Z,153.37
2019-02-16T00:34:51.753Z,155.53
2019-02-16T00:37:20.106Z,151.83
2019-02-16T00:39:48.252Z,154.70
2019-02-16T00:42:16.006Z,155.27
2019-02-16T00:44:43.767Z,155.43
2019-02-16T00:47:11.545Z,139.87
2019-02-16T00:49:39.328Z,149.43
2019-02-16T00:52:07.136Z,158.43
2019-02-16T00:54:35.745Z,149.23
2019-02-16T00:59:39.768Z,136.57
2019-02-16T01:02:13.366Z,154.80
2019-02-16T01:04:42.540Z,148.67
2019-02-16T01:07:11.854Z,142.50
2019-02-16T01:09:40.018Z,142.90
2019-02-16T01:12:07.998Z,152.43
2019-02-16T01:14:35.787Z,147.73
2019-02-16T01:17:07.379Z,149.50
2019-02-16T01:19:49.436Z,146.50
2019-02-16T01:22:19.448Z,153.33
2019-02-16T01:24:47.495Z,147.87
2019-02-16T01:27:16.025Z,147.87
2019-02-16T01:29:43.769Z,158.90
2019-02-16T01:32:13.601Z,155.57
2019-02-16T01:34:41.452Z,155.07
2019-02-16T01:37:09.156Z,166.70
2019-02-16T01:39:36.819Z,132.23
2019-02-16T01:42:07.795Z,151.77
2019-02-16T01:44:36.000Z,146.97
2019-02-16T01:47:04.852Z,137.43
2019-02-16T01:49:33.069Z,147.33
2019-02-16T01:52:03.917Z,139.23
2019-02-16T01:54:31.866Z,138.73
2019-02-16T01:56:59.764Z,137.37
2019-02-16T01:59:27.703Z,128.80
2019-02-16T02:01:55.469Z,122.90
2019-02-16T02:04:23.296Z,141.83
2019-02-16T02:06:51.136Z,139.10
2019-02-16T02:09:18.827Z,106.87
2019-02-16T02:11:46.556Z,107.10
2019-02-16T02:14:14.887Z,104.70
2019-02-16T02:16:42.647Z,93.33
2019-02-16T02:19:10.597Z,83.77
2019-02-16T02:21:41.160Z,93.50
2019-02-16T02:24:08.185Z,88.97
2019-02-16T02:26:38.179Z,91.67
2019-02-16T02:29:05.950Z,98.27
2019-02-16T02:31:33.999Z,101.10
2019-02-16T02:34:21.634Z,76.93
2019-02-16T02:36:49.435Z,81.73
2019-02-16T02:39:17.200Z,80.77
2019-02-16T02:41:44.898Z,85.93
2019-02-16T02:44:13.123Z,88.57
2019-02-16T02:46:41.340Z,93.70
2019-02-16T02:49:15.957Z,85.83
2019-02-16T02:51:51.685Z,77.97
2019-02-16T02:54:13.948Z,86.60
2019-02-16T02:56:41.616Z,80.67
2019-02-16T02:59:09.355Z,89.77
2019-02-16T03:01:37.170Z,91.30
2019-02-16T03:04:04.946Z,82.67
2019-02-16T03:06:33.081Z,85.87
2019-02-16T03:09:00.879Z,85.17
2019-02-16T03:11:28.596Z,74.37
2019-02-16T03:13:56.352Z,77.70
2019-02-16T03:16:26.138Z,78.30
2019-02-16T03:18:56.191Z,88.90
2019-02-16T03:21:23.822Z,83.47
2019-02-16T03:23:51.503Z,86.40
2019-02-16T03:26:34.700Z,90.90
2019-02-16T03:29:27.637Z,80.53
2019-02-16T03:32:47.383Z,73.87
2019-02-16T03:35:47.304Z,63.07
2019-02-16T03:38:51.629Z,55.20
2019-02-16T03:41:20.797Z,69.50
2019-02-16T03:43:48.827Z,66.80
2019-02-16T03:46:16.862Z,68.00
2019-02-16T03:48:44.740Z,69.67
2019-02-16T03:51:12.852Z,87.93
2019-02-16T03:53:40.658Z,72.17
2019-02-16T03:56:08.537Z,79.80
2019-02-16T03:58:36.418Z,82.77
2019-02-16T04:01:04.803Z,66.03
2019-02-16T04:03:32.525Z,68.47
2019-02-16T04:06:00.267Z,67.63
2019-02-16T04:08:28.149Z,63.13
2019-02-16T04:10:59.224Z,55.23
2019-02-16T04:13:29.585Z,65.83
2019-02-16T04:16:02.113Z,50.30
2019-02-16T04:18:29.850Z,50.03
2019-02-16T04:20:58.024Z,54.80
2019-02-16T04:23:27.013Z,51.30
2019-02-16T04:25:55.531Z,54.87
2019-02-16T04:28:23.634Z,69.27
2019-02-16T04:30:52.565Z,59.03
2019-02-16T04:33:20.725Z,59.73
2019-02-16T04:35:48.708Z,54.10
2019-02-16T04:38:17.421Z,56.83
2019-02-16T04:40:45.324Z,59.00
2019-02-16T04:43:21.235Z,55.80
2019-02-16T04:45:50.209Z,58.87
2019-02-16T04:48:24.408Z,61.53
2019-02-16T04:50:52.560Z,62.50
2019-02-16T04:53:20.806Z,51.60
2019-02-16T04:55:48.993Z,59.50
2019-02-16T04:58:17.576Z,58.93
2019-02-16T05:00:45.425Z,58.93
2019-02-16T05:03:13.427Z,82.53
2019-02-16T05:05:48.368Z,56.33
2019-02-16T05:08:16.278Z,60.10
2019-02-16T05:10:44.063Z,75.73
2019-02-16T05:13:11.945Z,69.10
2019-02-16T05:15:40.059Z,71.30
2019-02-16T05:18:07.838Z,73.00
2019-02-16T05:20:35.614Z,65.33
2019-02-16T05:23:03.944Z,67.60
2019-02-16T05:25:31.698Z,85.23
2019-02-16T05:27:59.459Z,79.80
2019-02-16T05:30:27.691Z,62.13
2019-02-16T05:32:55.701Z,68.20
2019-02-16T05:35:23.572Z,80.50
2019-02-16T05:37:51.844Z,68.57
2019-02-16T05:40:19.767Z,71.77
2019-02-16T05:42:48.572Z,70.37
2019-02-16T05:45:17.333Z,68.97
2019-02-16T05:47:45.099Z,74.50
2019-02-16T05:50:14.152Z,99.47
2019-02-16T05:52:42.282Z,72.50
2019-02-16T05:55:10.076Z,78.50
2019-02-16T05:57:37.867Z,79.80
2019-02-16T06:00:06.762Z,82.80
2019-02-16T06:02:34.403Z,63.40
2019-02-16T06:05:01.952Z,67.77
2019-02-16T06:07:30.131Z,68.27
2019-02-16T06:09:57.944Z,61.83
2019-02-16T06:12:25.807Z,54.77
2019-02-16T06:14:53.709Z,61.00
2019-02-16T06:17:21.949Z,54.53
2019-02-16T06:19:49.842Z,60.20
2019-02-16T06:22:17.784Z,62.40
2019-02-16T06:24:50.033Z,70.10
2019-02-16T06:27:18.017Z,67.53
2019-02-16T06:29:45.745Z,63.20
2019-02-16T06:32:13.530Z,66.77
2019-02-16T06:34:41.305Z,58.83
2019-02-16T06:37:23.500Z,56.23
2019-02-16T06:40:00.400Z,64.20
2019-02-16T06:42:30.767Z,55.10
2019-02-16T06:44:58.527Z,49.40
2019-02-16T06:47:26.400Z,53.63
2019-02-16T06:49:54.106Z,60.83
2019-02-16T06:52:22.090Z,65.90
2019-02-16T06:54:53.039Z,64.67
2019-02-16T06:57:27.941Z,50.73
2019-02-16T06:59:55.716Z,51.00
2019-02-16T07:02:24.699Z,57.10
2019-02-16T07:04:52.635Z,58.13
2019-02-16T07:07:27.479Z,55.97
2019-02-16T07:10:16.874Z,57.97
2019-02-16T07:13:25.672Z,52.53
2019-02-16T07:19:42.602Z,63.40
2019-02-16T07:22:13.506Z,42.57
2019-02-16T07:29:32.434Z,46.63
2019-02-16T07:36:31.198Z,40.53
2019-02-16T07:39:15.244Z,41.97
2019-02-16T07:41:45.353Z,44.63
2019-02-16T07:44:37.457Z,41.33
2019-02-16T07:47:34.458Z,39.83
2019-02-16T07:50:23.058Z,41.83
2019-02-16T07:53:15.014Z,41.40
2019-02-16T07:56:07.850Z,42.90
2019-02-16T07:58:53.720Z,46.37
2019-02-16T08:01:44.759Z,38.70
2019-02-16T08:04:26.059Z,37.03
2019-02-16T08:07:10.912Z,31.33
2019-02-16T08:09:49.389Z,33.93
2019-02-16T08:12:23.868Z,36.30
2019-02-16T08:15:02.759Z,39.23
2019-02-16T08:17:52.800Z,49.03
2019-02-16T08:20:46.038Z,37.17
2019-02-16T08:23:40.219Z,35.63
2019-02-16T08:26:25.095Z,36.40
2019-02-16T08:29:11.486Z,42.13
2019-02-16T08:31:49.598Z,39.63
2019-02-16T08:34:40.122Z,39.00
2019-02-16T08:37:17.646Z,35.37
2019-02-16T08:40:23.377Z,36.13
2019-02-16T08:43:28.931Z,35.63
2019-02-16T08:46:04.312Z,35.17
2019-02-16T08:48:57.072Z,35.73
2019-02-16T08:51:41.887Z,38.77
2019-02-16T08:54:31.839Z,37.87
2019-02-16T08:57:24.746Z,41.57
2019-02-16T09:00:10.409Z,38.67
2019-02-16T09:02:46.532Z,40.10
2019-02-16T09:05:26.104Z,43.53
2019-02-16T09:08:19.570Z,48.50
2019-02-16T09:11:05.332Z,49.23
2019-02-16T09:13:55.366Z,46.33
2019-02-16T09:16:33.663Z,40.30
2019-02-16T09:19:19.347Z,44.07
2019-02-16T09:22:04.624Z,42.47
2019-02-16T09:24:51.729Z,37.10
2019-02-16T09:27:48.159Z,45.17
2019-02-16T09:30:41.527Z,40.07
2019-02-16T09:33:31.290Z,42.17
2019-02-16T09:36:27.436Z,40.47
2019-02-16T09:39:09.645Z,38.80
2019-02-16T09:41:59.405Z,36.83
2019-02-16T09:45:01.489Z,37.00
2019-02-16T09:47:50.500Z,38.53
2019-02-16T09:50:25.051Z,36.17
2019-02-16T09:53:10.911Z,33.20
2019-02-16T09:56:13.131Z,33.37
2019-02-16T09:59:09.131Z,35.57
2019-02-16T10:01:56.773Z,36.03
2019-02-16T10:04:44.651Z,32.33
2019-02-16T10:07:46.597Z,35.47
2019-02-16T10:10:18.907Z,40.97
2019-02-16T10:13:02.278Z,53.47
2019-02-16T10:15:49.483Z,33.23
2019-02-16T10:18:39.488Z,32.90
2019-02-16T10:21:32.784Z,33.97
2019-02-16T10:24:34.957Z,40.27
2019-02-16T10:27:31.188Z,34.40
2019-02-16T10:30:21.870Z,35.67
2019-02-16T10:32:57.838Z,36.03
2019-02-16T10:36:00.266Z,36.90
2019-02-16T10:38:40.701Z,38.30
2019-02-16T10:41:21.149Z,38.20
2019-02-16T10:44:08.270Z,35.20
2019-02-16T10:46:58.922Z,36.07
2019-02-16T10:49:51.454Z,35.67
2019-02-16T10:52:50.706Z,31.07
2019-02-16T10:55:52.699Z,34.53
2019-02-16T10:58:48.923Z,36.63
2019-02-16T11:01:39.089Z,35.23
2019-02-16T11:04:13.239Z,33.37
2019-02-16T11:06:57.288Z,34.67
2019-02-16T11:09:32.522Z,34.40
2019-02-16T11:12:19.714Z,43.07
2019-02-16T11:15:05.386Z,38.60
2019-02-16T11:17:58.269Z,34.53
2019-02-16T11:20:48.532Z,36.17
2019-02-16T11:23:38.309Z,36.77
2019-02-16T11:26:23.993Z,37.13
2019-02-16T11:29:20.021Z,37.03
2019-02-16T11:32:04.277Z,36.57
2019-02-16T11:34:46.585Z,39.60
2019-02-16T11:37:42.709Z,36.83
2019-02-16T11:40:25.895Z,39.47
2019-02-16T11:43:02.641Z,39.37
2019-02-16T11:45:55.671Z,36.63
2019-02-16T11:48:33.414Z,59.40
2019-02-16T11:51:20.702Z,88.37
2019-02-16T11:54:13.805Z,60.07
2019-02-16T11:57:00.355Z,46.23
2019-02-16T11:59:53.724Z,41.93
2019-02-16T12:02:39.747Z,57.07
2019-02-16T12:05:15.902Z,41.83
2019-02-16T12:07:55.340Z,48.73
2019-02-16T12:10:34.049Z,60.80
2019-02-16T12:13:21.370Z,55.67
2019-02-16T12:16:20.274Z,47.53
2019-02-16T12:18:57.818Z,37.67
2019-02-16T12:21:43.663Z,40.17
2019-02-16T12:24:35.026Z,34.77
2019-02-16T12:27:12.698Z,30.43
2019-02-16T12:30:02.219Z,36.80
2019-02-16T12:32:50.030Z,63.80
2019-02-16T12:35:35.943Z,73.63
2019-02-16T12:38:29.029Z,73.47
2019-02-16T12:41:19.056Z,73.47
2019-02-16T12:44:08.903Z,40.87
2019-02-16T12:46:58.986Z,55.00
2019-02-16T12:49:37.298Z,34.10
2019-02-16T12:52:14.305Z,38.37
2019-02-16T12:55:14.460Z,39.87
2019-02-16T12:57:41.888Z,40.23
2019-02-16T13:00:35.398Z,30.10
2019-02-16T13:03:25.374Z,36.57
2019-02-16T13:06:03.025Z,31.70
2019-02-16T13:08:39.620Z,30.50
2019-02-16T13:11:32.807Z,38.03
2019-02-16T13:14:19.322Z,40.87
2019-02-16T13:17:21.127Z,31.63
2019-02-16T13:20:23.521Z,31.70
2019-02-16T13:22:57.986Z,30.13
2019-02-16T13:25:32.257Z,30.27
2019-02-16T13:28:16.738Z,31.47
2019-02-16T13:31:03.822Z,37.10
2019-02-16T13:33:50.080Z,36.07
2019-02-16T13:36:40.110Z,38.90
2019-02-16T13:39:42.021Z,35.23
2019-02-16T13:42:31.355Z,40.20
2019-02-16T13:45:08.719Z,55.37
2019-02-16T13:48:00.766Z,66.30
2019-02-16T13:50:34.304Z,50.20
2019-02-16T13:53:21.805Z,41.27
2019-02-16T13:56:11.795Z,44.70
2019-02-16T13:59:04.543Z,43.13
2019-02-16T14:01:48.474Z,41.00
2019-02-16T14:04:26.031Z,35.93
2019-02-16T14:07:22.061Z,43.47
2019-02-16T14:10:09.311Z,44.53
2019-02-16T14:12:47.614Z,52.03
2019-02-16T14:15:34.876Z,79.37
2019-02-16T14:18:02.769Z,64.50
2019-02-16T14:20:30.441Z,79.27
2019-02-16T14:22:58.099Z,101.27
2019-02-16T14:25:45.824Z,56.10
2019-02-16T14:28:13.661Z,59.17
2019-02-16T14:30:41.467Z,58.53
2019-02-16T14:33:09.224Z,55.10
2019-02-16T14:35:37.288Z,48.23
2019-02-16T14:38:30.442Z,102.93
2019-02-16T14:40:58.198Z,108.13
2019-02-16T14:43:26.090Z,68.57
2019-02-16T14:45:54.026Z,52.10
2019-02-16T14:48:22.146Z,49.03
2019-02-16T14:50:50.064Z,55.20
2019-02-16T14:53:17.881Z,51.00
2019-02-16T14:55:52.319Z,54.77
2019-02-16T14:58:15.416Z,60.87
2019-02-16T15:00:44.607Z,69.63
2019-02-16T15:03:12.385Z,70.40
2019-02-16T15:05:41.334Z,87.07
2019-02-16T15:08:09.116Z,95.10
2019-02-16T15:10:36.959Z,89.50
2019-02-16T15:13:07.337Z,81.57
2019-02-16T15:15:35.105Z,77.80
2019-02-16T15:18:03.849Z,116.47
2019-02-16T15:20:31.724Z,90.87
2019-02-16T15:22:59.615Z,74.73
2019-02-16T15:25:30.289Z,75.33
2019-02-16T15:27:58.115Z,60.77
2019-02-16T15:30:25.957Z,51.60
2019-02-16T15:32:53.707Z,57.93
2019-02-16T15:35:21.428Z,56.83
2019-02-16T15:37:49.122Z,56.37
2019-02-16T15:40:16.915Z,54.43
2019-02-16T15:42:44.660Z,54.27
2019-02-16T15:45:12.694Z,59.40
2019-02-16T15:47:40.650Z,54.43
2019-02-16T15:50:09.951Z,54.93
2019-02-16T15:52:37.801Z,55.87
2019-02-16T15:55:06.409Z,56.60
2019-02-16T15:57:35.095Z,55.00
2019-02-16T16:00:03.235Z,59.67
2019-02-16T16:02:30.991Z,59.77
2019-02-16T16:04:58.776Z,58.87
2019-02-16T16:07:26.763Z,62.07
2019-02-16T16:10:29.021Z,65.30
2019-02-16T16:13:16.189Z,64.83
2019-02-16T16:15:50.996Z,65.50
2019-02-16T16:18:39.177Z,61.90
2019-02-16T16:21:19.164Z,65.03
2019-02-16T16:24:21.305Z,64.17
2019-02-16T16:27:26.428Z,62.03
2019-02-16T16:30:25.428Z,65.77
2019-02-16T16:33:21.529Z,66.97
2019-02-16T16:36:07.096Z,68.70
2019-02-16T16:38:53.676Z,76.73
2019-02-16T16:41:43.868Z,79.63
2019-02-16T16:44:32.609Z,80.90
2019-02-16T16:47:18.110Z,83.63
2019-02-16T16:50:03.772Z,85.57
2019-02-16T16:52:53.914Z,89.33
2019-02-16T16:55:29.316Z,83.03
2019-02-16T16:58:12.758Z,90.67
2019-02-16T17:01:02.743Z,89.13
2019-02-16T17:03:52.460Z,89.73
2019-02-16T17:06:37.802Z,82.47
2019-02-16T17:09:40.491Z,85.93
2019-02-16T17:12:34.940Z,80.37
2019-02-16T17:15:23.062Z,85.60
2019-02-16T17:17:57.417Z,84.87
2019-02-16T17:20:59.127Z,88.67
2019-02-16T17:23:36.276Z,92.53
2019-02-16T17:26:21.762Z,86.43
2019-02-16T17:29:08.939Z,91.40
2019-02-16T17:31:58.608Z,91.97
2019-02-16T17:35:00.584Z,92.03
2019-02-16T17:37:43.894Z,99.77
2019-02-16T17:40:33.735Z,91.60
2019-02-16T17:43:20.830Z,103.23
2019-02-16T17:45:59.151Z,109.57
2019-02-16T17:48:49.056Z,108.30
2019-02-16T17:51:41.905Z,115.80
2019-02-16T17:54:34.688Z,117.70
2019-02-16T17:57:11.937Z,120.63
2019-02-16T18:00:05.011Z,120.90
2019-02-16T18:03:00.798Z,126.20
2019-02-16T18:05:47.110Z,131.67
2019-02-16T18:08:34.341Z,137.03
2019-02-16T18:11:24.300Z,133.43
2019-02-16T18:13:59.935Z,140.47
2019-02-16T18:16:38.990Z,149.40
2019-02-16T18:19:28.920Z,150.67
2019-02-16T18:22:11.625Z,152.27
2019-02-16T18:25:01.893Z,171.20
2019-02-16T18:27:49.120Z,160.23
2019-02-16T18:30:41.917Z,157.30
2019-02-16T18:33:29.705Z,155.80
2019-02-16T18:36:16.877Z,171.03
2019-02-16T18:39:02.220Z,171.77
2019-02-16T18:41:58.575Z,162.63
2019-02-16T18:44:45.356Z,167.30
2019-02-16T18:47:32.506Z,189.20
2019-02-16T18:50:19.766Z,178.37
2019-02-16T18:53:11.133Z,176.73
2019-02-16T18:56:09.924Z,176.20
2019-02-16T18:59:03.081Z,167.77
2019-02-16T19:02:08.350Z,194.90
2019-02-16T19:04:50.993Z,182.53
2019-02-16T19:07:44.256Z,183.63
2019-02-16T19:10:32.577Z,192.50
2019-02-16T19:13:06.817Z,212.43
2019-02-16T19:15:52.065Z,207.43
2019-02-16T19:18:42.196Z,215.53
2019-02-16T19:21:29.432Z,204.13
2019-02-16T19:24:15.044Z,218.30
2019-02-16T19:27:16.610Z,194.80
2019-02-16T19:30:01.864Z,210.63
2019-02-16T19:32:51.109Z,202.33
2019-02-16T19:35:43.662Z,191.90
2019-02-16T19:38:32.854Z,226.23
2019-02-16T19:41:25.555Z,225.60
2019-02-16T19:44:04.866Z,241.17
2019-02-16T19:46:58.069Z,231.50
2019-02-16T19:49:43.617Z,224.90
2019-02-16T19:52:29.188Z,224.33
2019-02-16T19:55:19.240Z,234.53
2019-02-16T19:58:06.386Z,231.97
2019-02-16T20:01:08.482Z,226.60
2019-02-16T20:04:05.153Z,246.77
2019-02-16T20:06:52.907Z,235.97
2019-02-16T20:09:45.806Z,261.27
2019-02-16T20:12:40.383Z,259.07
2019-02-16T20:15:22.826Z,269.13
2019-02-16T20:18:28.173Z,243.03
2019-02-16T20:21:24.498Z,234.03
2019-02-16T20:24:01.493Z,257.50
2019-02-16T20:26:59.746Z,239.60
2019-02-16T20:29:36.779Z,259.50
2019-02-16T20:32:38.810Z,267.43
2019-02-16T20:35:22.803Z,266.50
2019-02-16T20:38:08.221Z,266.00
2019-02-16T20:41:04.356Z,262.23
2019-02-16T20:43:45.334Z,268.73
2019-02-16T20:46:32.574Z,242.07
2019-02-16T20:49:23.143Z,257.53
2019-02-16T20:51:57.965Z,249.43
2019-02-16T20:54:44.063Z,247.33
2019-02-16T20:57:30.682Z,265.10
2019-02-16T21:00:18.110Z,242.10
2019-02-16T21:03:05.284Z,244.60
2019-02-16T21:06:04.383Z,264.70
2019-02-16T21:08:57.894Z,245.07
2019-02-16T21:11:42.642Z,262.77
2019-02-16T21:14:34.120Z,273.07
2019-02-16T21:17:27.221Z,283.97
2019-02-16T21:20:26.222Z,265.53
2019-02-16T21:23:18.890Z,280.90
2019-02-16T21:25:58.621Z,271.80
2019-02-16T21:28:48.656Z,272.83
2019-02-16T21:31:31.021Z,267.53
2019-02-16T21:34:09.408Z,275.27
2019-02-16T21:36:44.762Z,301.50
2019-02-16T21:39:31.915Z,301.20
2019-02-16T21:42:22.750Z,276.50
2019-02-16T21:45:19.637Z,262.93
2019-02-16T21:48:05.325Z,241.80
2019-02-16T21:50:50.994Z,258.20
2019-02-16T21:53:44.302Z,227.33
2019-02-16T21:56:34.475Z,249.50
2019-02-16T21:59:24.186Z,258.13
2019-02-16T22:01:59.009Z,243.83
2019-02-16T22:04:55.002Z,249.77
2019-02-16T22:07:40.609Z,258.97
2019-02-16T22:10:26.181Z,254.77
2019-02-16T22:13:13.343Z,261.20
2019-02-16T22:15:41.071Z,262.80
2019-02-16T22:18:09.247Z,271.50
2019-02-16T22:20:37.058Z,225.73
2019-02-16T22:23:07.621Z,224.03
2019-02-16T22:25:35.445Z,230.93
2019-02-16T22:28:03.116Z,225.70
2019-02-16T22:30:30.946Z,257.37
2019-02-16T22:32:58.786Z,247.07
2019-02-16T22:35:26.542Z,242.07
2019-02-16T22:37:54.444Z,244.63
2019-02-16T22:40:24.431Z,268.93
2019-02-16T22:42:52.126Z,261.80
2019-02-16T22:45:19.975Z,249.53
2019-02-16T22:47:48.123Z,267.13
2019-02-16T22:50:15.866Z,278.83
2019-02-16T22:52:44.508Z,257.97
2019-02-16T22:55:12.182Z,281.03
2019-02-16T22:57:42.625Z,251.40
2019-02-16T23:00:15.274Z,260.00
2019-02-16T23:02:44.493Z,255.93
2019-02-16T23:05:12.310Z,268.77
2019-02-16T23:07:40.122Z,254.73
2019-02-16T23:10:08.565Z,264.47
2019-02-16T23:12:36.378Z,256.13
2019-02-16T23:15:04.291Z,237.77
2019-02-16T23:17:32.025Z,197.97
2019-02-16T23:19:59.760Z,222.90
2019-02-16T23:22:27.503Z,230.93
2019-02-16T23:24:55.248Z,233.77
2019-02-16T23:27:22.936Z,220.80
2019-02-16T23:29:50.640Z,237.37
2019-02-16T23:32:19.968Z,218.33
2019-02-16T23:34:47.490Z,250.30
2019-02-16T23:37:15.193Z,224.10
2019-02-16T23:39:42.910Z,237.87
2019-02-16T23:42:10.752Z,231.23
2019-02-16T23:44:38.442Z,248.00
2019-02-16T23:47:06.114Z,255.80
2019-02-16T23:49:33.876Z,244.13
2019-02-16T23:52:01.694Z,231.70
2019-02-16T23:54:29.353Z,242.00
2019-02-16T23:56:57.375Z,214.53
2019-02-16T23:59:25.090Z,221.90
